createdAt,value
2022-07-27T00:01:20.849Z,98788.66
2022-07-27T00:03:23.599Z,98787.47
2022-07-27T00:05:26.272Z,98780.31
2022-07-27T00:07:29.372Z,98789.44
2022-07-27T00:09:32.452Z,98786.66
2022-07-27T00:11:35.251Z,98783.47
2022-07-27T00:13:38.429Z,98790.19
2022-07-27T00:15:40.896Z,98787.00
2022-07-27T00:17:43.928Z,98788.19
2022-07-27T00:19:46.457Z,98784.59
2022-07-27T00:21:48.941Z,98783.03
2022-07-27T00:23:54.776Z,98789.38
2022-07-27T00:25:57.617Z,98785.78
2022-07-27T00:28:00.107Z,98794.13
2022-07-27T00:30:02.739Z,98798.91
2022-07-27T00:32:12.325Z,98794.13
2022-07-27T00:34:15.286Z,98797.28
2022-07-27T00:36:18.106Z,98802.84
2022-07-27T00:38:20.691Z,98803.66
2022-07-27T00:40:23.291Z,98802.03
2022-07-27T00:42:28.526Z,98805.19
2022-07-27T00:44:32.925Z,98800.44
2022-07-27T00:46:35.655Z,98811.91
2022-07-27T00:48:38.273Z,98815.47
2022-07-27T00:50:46.331Z,98820.59
2022-07-27T00:52:49.176Z,98813.41
2022-07-27T00:54:52.961Z,98820.94
2022-07-27T00:56:55.537Z,98817.75
2022-07-27T00:58:58.459Z,98822.47
2022-07-27T01:01:01.033Z,98820.84
2022-07-27T01:03:08.595Z,98826.03
2022-07-27T01:05:11.886Z,98828.81
2022-07-27T01:07:16.966Z,98826.03
2022-07-27T01:09:38.157Z,98832.78
2022-07-27T01:11:41.441Z,98828.03
2022-07-27T01:13:44.045Z,98829.22
2022-07-27T01:15:46.681Z,98836.78
2022-07-27T01:17:49.261Z,98836.00
2022-07-27T01:19:52.528Z,98841.59
2022-07-27T01:21:55.024Z,98840.38
2022-07-27T01:23:57.479Z,98844.78
2022-07-27T01:26:05.652Z,98841.22
2022-07-27T01:28:08.134Z,98853.94
2022-07-27T01:30:26.673Z,98844.03
2022-07-27T01:32:29.237Z,98852.34
2022-07-27T01:34:33.747Z,98851.19
2022-07-27T01:36:36.473Z,98848.44
2022-07-27T01:38:39.073Z,98846.47
2022-07-27T01:40:41.779Z,98855.19
2022-07-27T01:42:44.283Z,98852.81
2022-07-27T01:44:46.756Z,98850.09
2022-07-27T01:46:49.524Z,98844.94
2022-07-27T01:48:52.161Z,98851.31
2022-07-27T01:50:55.248Z,98853.34
2022-07-27T01:52:57.825Z,98846.59
2022-07-27T01:55:00.460Z,98846.63
2022-07-27T01:57:03.149Z,98844.66
2022-07-27T01:59:05.819Z,98842.69
2022-07-27T02:01:08.490Z,98844.31
2022-07-27T02:03:12.067Z,98849.91
2022-07-27T02:05:14.820Z,98843.97
2022-07-27T02:07:17.369Z,98837.63
2022-07-27T02:09:21.061Z,98838.84
2022-07-27T02:11:42.091Z,98855.56
2022-07-27T02:13:47.325Z,98852.00
2022-07-27T02:15:49.918Z,98847.63
2022-07-27T02:17:57.350Z,98844.88
2022-07-27T02:20:00.308Z,98856.38
2022-07-27T02:22:02.807Z,98856.81
2022-07-27T02:24:05.860Z,98846.50
2022-07-27T02:26:09.534Z,98857.66
2022-07-27T02:28:12.243Z,98860.03
2022-07-27T02:30:17.841Z,98856.50
2022-07-27T02:32:21.018Z,98857.28
2022-07-27T02:34:23.609Z,98860.47
2022-07-27T02:36:29.445Z,98861.69
2022-07-27T02:38:32.111Z,98856.16
2022-07-27T02:40:34.704Z,98845.44
2022-07-27T02:42:37.209Z,98856.16
2022-07-27T02:44:39.689Z,98862.53
2022-07-27T02:46:42.275Z,98860.94
2022-07-27T02:48:44.927Z,98865.69
2022-07-27T02:50:47.524Z,98869.31
2022-07-27T02:52:50.016Z,98866.13
2022-07-27T02:54:52.594Z,98874.06
2022-07-27T02:56:56.249Z,98867.72
2022-07-27T02:58:58.736Z,98876.50
2022-07-27T03:01:01.277Z,98877.72
2022-07-27T03:03:03.935Z,98876.91
2022-07-27T03:05:07.909Z,98883.72
2022-07-27T03:07:10.654Z,98886.09
2022-07-27T03:09:13.802Z,98886.91
2022-07-27T03:11:16.706Z,98888.50
2022-07-27T03:13:19.243Z,98889.31
2022-07-27T03:15:21.841Z,98892.91
2022-07-27T03:17:24.376Z,98886.19
2022-07-27T03:19:30.153Z,98894.16
2022-07-27T03:21:33.040Z,98890.19
2022-07-27T03:23:35.664Z,98888.59
2022-07-27T03:25:38.197Z,98892.97
2022-07-27T03:27:40.760Z,98899.34
2022-07-27T03:29:43.267Z,98890.63
2022-07-27T03:31:45.958Z,98898.59
2022-07-27T03:33:49.773Z,98900.97
2022-07-27T03:35:52.246Z,98897.44
2022-07-27T03:37:54.954Z,98904.97
2022-07-27T03:39:57.553Z,98901.41
2022-07-27T03:42:00.084Z,98907.75
2022-07-27T03:44:02.583Z,98900.59
2022-07-27T03:46:05.217Z,98909.38
2022-07-27T03:48:07.792Z,98913.75
2022-07-27T03:50:10.380Z,98916.16
2022-07-27T03:52:17.488Z,98918.16
2022-07-27T03:54:20.472Z,98924.50
2022-07-27T03:56:23.015Z,98923.72
2022-07-27T03:58:25.602Z,98921.72
2022-07-27T04:00:28.242Z,98920.16
2022-07-27T04:02:30.788Z,98930.88
2022-07-27T04:04:33.433Z,98922.56
2022-07-27T04:06:35.935Z,98928.50
2022-07-27T04:08:38.792Z,98934.09
2022-07-27T04:10:42.164Z,98935.72
2022-07-27T04:12:46.760Z,98940.50
2022-07-27T04:14:50.826Z,98933.75
2022-07-27T04:16:53.370Z,98941.28
2022-07-27T04:18:55.942Z,98940.13
2022-07-27T04:20:59.540Z,98943.28
2022-07-27T04:23:02.019Z,98942.09
2022-07-27T04:25:05.102Z,98949.28
2022-07-27T04:27:07.687Z,98948.44
2022-07-27T04:29:10.623Z,98952.84
2022-07-27T04:31:13.472Z,98942.09
2022-07-27T04:33:16.221Z,98943.66
2022-07-27T04:35:22.743Z,98946.84
2022-07-27T04:37:28.823Z,98937.31
2022-07-27T04:39:31.436Z,98938.91
2022-07-27T04:41:34.126Z,98946.88
2022-07-27T04:43:36.648Z,98946.84
2022-07-27T04:45:39.309Z,98952.84
2022-07-27T04:47:41.877Z,98953.63
2022-07-27T04:49:44.420Z,98959.97
2022-07-27T04:51:47.043Z,98954.78
2022-07-27T04:53:54.103Z,98960.38
2022-07-27T04:56:01.081Z,98966.34
2022-07-27T04:58:03.738Z,98956.38
2022-07-27T05:00:06.947Z,98962.75
2022-07-27T05:02:09.494Z,98961.53
2022-07-27T05:04:12.104Z,98954.78
2022-07-27T05:06:14.737Z,98960.75
2022-07-27T05:08:17.835Z,98958.38
2022-07-27T05:10:20.961Z,98958.34
2022-07-27T05:12:23.847Z,98964.72
2022-07-27T05:14:26.384Z,98963.91
2022-07-27T05:16:29.345Z,98953.91
2022-07-27T05:18:32.534Z,98952.69
2022-07-27T05:20:35.017Z,98954.69
2022-07-27T05:22:39.719Z,98957.91
2022-07-27T05:24:43.074Z,98953.06
2022-07-27T05:28:47.972Z,98961.81
2022-07-27T05:30:50.551Z,98968.19
2022-07-27T05:32:53.643Z,98966.19
2022-07-27T05:34:56.236Z,98976.13
2022-07-27T05:36:58.807Z,98969.72
2022-07-27T05:39:01.309Z,98972.41
2022-07-27T05:41:03.901Z,98970.75
2022-07-27T05:43:06.514Z,98980.69
2022-07-27T05:45:10.390Z,98979.84
2022-07-27T05:47:12.888Z,98979.34
2022-07-27T05:49:15.833Z,98981.31
2022-07-27T05:51:18.806Z,98982.84
2022-07-27T05:53:21.367Z,98979.97
2022-07-27T05:55:25.254Z,98983.84
2022-07-27T05:57:27.771Z,98989.41
2022-07-27T05:59:32.249Z,98991.31
2022-07-27T06:01:35.130Z,98989.66
2022-07-27T06:03:38.682Z,98986.41
2022-07-27T06:05:41.312Z,98990.34
2022-07-27T06:07:59.374Z,98990.28
2022-07-27T06:10:02.108Z,98996.66
2022-07-27T06:12:06.563Z,98997.06
2022-07-27T06:14:09.623Z,98996.66
2022-07-27T06:16:12.437Z,98992.63
2022-07-27T06:18:18.371Z,98983.84
2022-07-27T06:20:23.656Z,98990.06
2022-07-27T06:22:26.495Z,98987.16
2022-07-27T06:24:29.099Z,98989.84
2022-07-27T06:26:31.650Z,98998.91
2022-07-27T06:28:34.221Z,98992.41
2022-07-27T06:30:36.915Z,98991.84
2022-07-27T06:32:39.539Z,98994.16
2022-07-27T06:34:43.276Z,98977.25
2022-07-27T06:36:45.869Z,98993.47
2022-07-27T06:38:49.057Z,98995.91
2022-07-27T06:40:55.161Z,98995.59
2022-07-27T06:42:58.665Z,98994.63
2022-07-27T06:45:01.331Z,98991.41
2022-07-27T06:47:04.015Z,98993.88
2022-07-27T06:49:08.295Z,98994.25
2022-07-27T06:51:11.100Z,98998.28
2022-07-27T06:53:20.762Z,98997.03
2022-07-27T06:55:23.863Z,98985.31
2022-07-27T06:57:26.751Z,99001.00
2022-07-27T06:59:43.491Z,98995.50
2022-07-27T07:01:48.812Z,99001.75
2022-07-27T07:03:51.874Z,99007.59
2022-07-27T07:05:54.654Z,99004.81
2022-07-27T07:07:58.281Z,99004.97
2022-07-27T07:10:00.862Z,99004.53
2022-07-27T07:12:03.724Z,98999.16
2022-07-27T07:14:06.290Z,99004.47
2022-07-27T07:16:08.887Z,98994.09
2022-07-27T07:18:12.442Z,98992.03
2022-07-27T07:20:15.134Z,98998.41
2022-07-27T07:22:17.769Z,99000.88
2022-07-27T07:24:20.306Z,98993.78
2022-07-27T07:26:22.918Z,98996.28
2022-07-27T07:28:25.500Z,98989.13
2022-07-27T07:30:28.641Z,99002.25
2022-07-27T07:32:33.599Z,98994.75
2022-07-27T07:34:37.664Z,99005.97
2022-07-27T07:36:40.372Z,99005.97
2022-07-27T07:38:44.529Z,99001.56
2022-07-27T07:40:47.127Z,99004.25
2022-07-27T07:42:57.973Z,99008.94
2022-07-27T07:45:01.066Z,99004.50
2022-07-27T07:47:04.818Z,99015.69
2022-07-27T07:49:07.524Z,99007.16
2022-07-27T07:51:10.926Z,99008.69
2022-07-27T07:53:15.263Z,99012.06
2022-07-27T07:55:26.187Z,99011.97
2022-07-27T07:57:28.881Z,99005.22
2022-07-27T07:59:31.635Z,99006.03
2022-07-27T08:01:34.339Z,99011.63
2022-07-27T08:03:38.451Z,99010.41
2022-07-27T08:05:41.094Z,99008.84
2022-07-27T08:07:45.262Z,99015.50
2022-07-27T08:09:47.918Z,99020.78
2022-07-27T08:11:50.631Z,99027.63
2022-07-27T08:13:53.232Z,99022.38
2022-07-27T08:15:56.084Z,99027.00
2022-07-27T08:17:59.345Z,99035.31
2022-07-27T08:20:02.451Z,99016.91
2022-07-27T08:22:06.268Z,99017.81
2022-07-27T08:24:09.014Z,99020.78
2022-07-27T08:26:11.793Z,99018.72
2022-07-27T08:28:15.381Z,99012.97
2022-07-27T08:30:22.547Z,99015.66
2022-07-27T08:32:31.342Z,99025.69
2022-07-27T08:34:37.398Z,99017.56
2022-07-27T08:36:39.985Z,99020.72
2022-07-27T08:38:42.562Z,99018.16
2022-07-27T08:40:47.877Z,99016.56
2022-07-27T08:42:50.831Z,99020.44
2022-07-27T08:44:54.938Z,99022.03
2022-07-27T08:46:58.199Z,99019.59
2022-07-27T08:49:02.908Z,99016.72
2022-07-27T08:51:07.739Z,99019.50
2022-07-27T08:53:13.933Z,99017.81
2022-07-27T08:55:17.619Z,99023.44
2022-07-27T08:57:21.415Z,99024.22
2022-07-27T08:59:26.179Z,99020.91
2022-07-27T09:01:31.641Z,99029.56
2022-07-27T09:03:34.227Z,99028.63
2022-07-27T09:05:43.651Z,99027.72
2022-07-27T09:07:46.795Z,99029.00
2022-07-27T09:09:49.808Z,99026.69
2022-07-27T09:12:04.972Z,99030.94
2022-07-27T09:14:12.687Z,99034.91
2022-07-27T09:16:20.376Z,99028.44
2022-07-27T09:18:25.808Z,99033.19
2022-07-27T09:20:28.389Z,99025.50
2022-07-27T09:22:56.322Z,99027.44
2022-07-27T09:25:03.231Z,99031.81
2022-07-27T09:27:06.408Z,99031.47
2022-07-27T09:29:15.183Z,99031.59
2022-07-27T09:31:18.164Z,99037.28
2022-07-27T09:33:20.844Z,99025.09
2022-07-27T09:35:33.988Z,99026.97
2022-07-27T09:37:36.756Z,99025.19
2022-07-27T09:39:39.483Z,99032.69
2022-07-27T09:41:45.920Z,99032.47
2022-07-27T09:46:30.347Z,99028.16
2022-07-27T09:48:35.380Z,99023.78
2022-07-27T09:50:48.846Z,99018.16
2022-07-27T09:53:41.916Z,99022.47
2022-07-27T09:55:47.544Z,99021.16
2022-07-27T09:57:55.726Z,99022.38
2022-07-27T10:00:14.036Z,99031.28
2022-07-27T10:02:17.191Z,99031.13
2022-07-27T10:04:20.021Z,99026.56
2022-07-27T10:06:25.260Z,99024.03
2022-07-27T10:08:28.996Z,99037.09
2022-07-27T10:10:31.599Z,99034.50
2022-07-27T10:12:34.179Z,99046.38
2022-07-27T10:14:37.211Z,99034.88
2022-07-27T10:16:44.050Z,99037.88
2022-07-27T10:19:16.242Z,99040.03
2022-07-27T10:21:19.472Z,99026.94
2022-07-27T10:23:29.816Z,99037.16
2022-07-27T10:25:37.309Z,99031.38
2022-07-27T10:27:41.052Z,99031.03
2022-07-27T10:29:44.984Z,99032.81
2022-07-27T10:32:00.449Z,99028.50
2022-07-27T10:34:06.145Z,99027.44
2022-07-27T10:36:17.239Z,99024.28
2022-07-27T10:38:21.830Z,99035.63
2022-07-27T10:40:36.661Z,99023.13
2022-07-27T10:42:39.872Z,99026.03
2022-07-27T10:44:55.564Z,99028.53
2022-07-27T10:47:03.518Z,99025.16
2022-07-27T10:49:20.460Z,99029.38
2022-07-27T10:51:36.051Z,99039.09
2022-07-27T10:54:09.769Z,99028.59
2022-07-27T10:56:06.745Z,99025.94
2022-07-27T10:58:09.285Z,99029.94
2022-07-27T11:00:17.854Z,99032.53
2022-07-27T11:02:39.260Z,99031.19
2022-07-27T11:04:47.897Z,99027.25
2022-07-27T11:07:23.566Z,99028.72
2022-07-27T11:11:42.276Z,99029.66
2022-07-27T11:13:45.918Z,99021.91
2022-07-27T11:16:22.857Z,99022.47
2022-07-27T11:18:32.570Z,99027.06
2022-07-27T11:20:35.174Z,99025.69
2022-07-27T11:25:04.157Z,99029.56
2022-07-27T11:27:16.859Z,99031.00
2022-07-27T11:29:22.649Z,99035.78
2022-07-27T11:31:52.793Z,99026.41
2022-07-27T11:33:52.078Z,99030.66
2022-07-27T11:36:01.501Z,99030.28
2022-07-27T11:38:07.807Z,99029.88
2022-07-27T11:40:37.488Z,99036.81
2022-07-27T11:42:38.503Z,99038.16
2022-07-27T11:44:46.335Z,99036.31
2022-07-27T11:46:51.157Z,99039.13
2022-07-27T11:49:09.346Z,99037.16
2022-07-27T11:51:12.444Z,99036.38
2022-07-27T11:53:20.910Z,99026.78
2022-07-27T11:55:23.844Z,99035.34
2022-07-27T11:57:32.240Z,99036.44
2022-07-27T11:59:36.917Z,99043.47
2022-07-27T12:01:45.202Z,99047.81
2022-07-27T12:03:48.770Z,99041.09
2022-07-27T12:05:51.928Z,99045.34
2022-07-27T12:07:54.688Z,99042.25
2022-07-27T12:09:59.722Z,99043.38
2022-07-27T12:12:10.156Z,99034.94
2022-07-27T12:14:17.146Z,99039.34
2022-07-27T12:16:20.076Z,99047.72
2022-07-27T12:18:24.106Z,99046.94
2022-07-27T12:20:33.810Z,99045.25
2022-07-27T12:22:37.813Z,99046.22
2022-07-27T12:24:42.937Z,99050.44
2022-07-27T12:27:06.794Z,99047.13
2022-07-27T12:29:12.632Z,99039.56
2022-07-27T12:31:19.135Z,99042.06
2022-07-27T12:33:37.552Z,99042.19
2022-07-27T12:35:47.219Z,99038.66
2022-07-27T12:37:58.052Z,99033.41
2022-07-27T12:40:00.827Z,99035.91
2022-07-27T12:42:08.052Z,99037.34
2022-07-27T12:44:18.367Z,99031.81
2022-07-27T12:46:21.140Z,99035.78
2022-07-27T12:48:26.265Z,99033.06
2022-07-27T12:50:29.044Z,99048.03
2022-07-27T12:52:32.913Z,99036.91
2022-07-27T12:54:35.666Z,99033.53
2022-07-27T12:56:38.468Z,99034.25
2022-07-27T12:58:58.176Z,99027.03
2022-07-27T13:01:01.608Z,99036.66
2022-07-27T13:03:05.362Z,99019.81
2022-07-27T13:05:09.866Z,99016.81
2022-07-27T13:07:12.565Z,99017.94
2022-07-27T13:09:15.575Z,99024.72
2022-07-27T13:11:18.621Z,99023.44
2022-07-27T13:13:24.960Z,99022.97
2022-07-27T13:15:27.815Z,99024.34
2022-07-27T13:17:30.570Z,99022.25
2022-07-27T13:19:33.396Z,99012.63
2022-07-27T13:21:36.147Z,99016.91
2022-07-27T13:23:38.830Z,99015.13
2022-07-27T13:25:43.482Z,99014.03
2022-07-27T13:27:48.511Z,99017.94
2022-07-27T13:29:52.276Z,99020.59
2022-07-27T13:31:57.270Z,99013.72
2022-07-27T13:34:00.477Z,99017.16
2022-07-27T13:36:05.294Z,99012.56
2022-07-27T13:38:08.570Z,99011.97
2022-07-27T13:40:17.166Z,99014.50
2022-07-27T13:42:21.364Z,99012.75
2022-07-27T13:44:58.298Z,99011.56
2022-07-27T13:46:48.693Z,99006.88
2022-07-27T13:48:51.288Z,99006.72
2022-07-27T13:50:53.856Z,99003.28
2022-07-27T13:52:56.533Z,99005.81
2022-07-27T13:54:59.101Z,99007.88
2022-07-27T13:57:01.612Z,99005.28
2022-07-27T13:59:05.173Z,99005.81
2022-07-27T14:01:08.868Z,99007.06
2022-07-27T14:03:11.762Z,98998.06
2022-07-27T14:05:15.865Z,99002.88
2022-07-27T14:07:18.755Z,99009.25
2022-07-27T14:09:22.177Z,99013.88
2022-07-27T14:11:24.866Z,99016.56
2022-07-27T14:13:27.475Z,99007.97
2022-07-27T14:15:30.235Z,99005.09
2022-07-27T14:17:32.880Z,99012.63
2022-07-27T14:19:37.047Z,99021.09
2022-07-27T14:21:39.641Z,99013.22
2022-07-27T14:23:42.483Z,99010.53
2022-07-27T14:25:45.111Z,99008.69
2022-07-27T14:27:47.691Z,99013.09
2022-07-27T14:29:50.234Z,99010.06
2022-07-27T14:31:52.943Z,99013.63
2022-07-27T14:33:55.494Z,99015.03
2022-07-27T14:35:58.358Z,99020.69
2022-07-27T14:38:02.572Z,99012.19
2022-07-27T14:40:06.593Z,99019.53
2022-07-27T14:42:09.414Z,99016.25
2022-07-27T14:44:11.975Z,99007.31
2022-07-27T14:46:14.553Z,99015.78
2022-07-27T14:48:28.251Z,99005.53
2022-07-27T14:50:34.999Z,99013.38
2022-07-27T14:52:37.655Z,99010.59
2022-07-27T14:54:41.375Z,99015.94
2022-07-27T14:56:44.429Z,99016.66
2022-07-27T14:58:46.966Z,99016.97
2022-07-27T15:00:49.611Z,99018.00
2022-07-27T15:02:53.187Z,99022.19
2022-07-27T15:04:55.865Z,99019.34
2022-07-27T15:06:59.995Z,99012.78
2022-07-27T15:09:04.327Z,99023.88
2022-07-27T15:11:06.985Z,99012.03
2022-07-27T15:13:09.750Z,99016.22
2022-07-27T15:15:12.306Z,99008.94
2022-07-27T15:17:15.019Z,99014.94
2022-07-27T15:19:18.558Z,99015.44
2022-07-27T15:21:21.158Z,99010.59
2022-07-27T15:23:23.810Z,99009.16
2022-07-27T15:25:26.475Z,99017.69
2022-07-27T15:27:29.023Z,99020.72
2022-07-27T15:29:31.661Z,99017.97
2022-07-27T15:31:34.236Z,99014.25
2022-07-27T15:33:38.622Z,99016.78
2022-07-27T15:35:41.769Z,99021.66
2022-07-27T15:37:54.833Z,99011.34
2022-07-27T15:40:17.624Z,99016.94
2022-07-27T15:42:22.984Z,99014.75
2022-07-27T15:44:25.507Z,99016.50
2022-07-27T15:46:28.193Z,99003.44
2022-07-27T15:48:31.207Z,99007.03
2022-07-27T15:50:34.205Z,99018.78
2022-07-27T15:52:37.019Z,99013.69
2022-07-27T15:54:45.360Z,99016.75
2022-07-27T15:56:48.095Z,99024.72
2022-07-27T15:58:51.877Z,99025.06
2022-07-27T16:00:57.588Z,99019.41
2022-07-27T16:03:00.497Z,99021.38
2022-07-27T16:05:04.079Z,99020.06
2022-07-27T16:07:08.535Z,99029.19
2022-07-27T16:09:11.982Z,99019.09
2022-07-27T16:11:14.899Z,99024.69
2022-07-27T16:13:17.572Z,99022.84
2022-07-27T16:15:20.424Z,99022.69
2022-07-27T16:17:22.966Z,99022.69
2022-07-27T16:19:25.469Z,99023.88
2022-07-27T16:21:29.655Z,99028.88
2022-07-27T16:23:53.827Z,99025.28
2022-07-27T16:26:06.722Z,99029.38
2022-07-27T16:28:10.407Z,99029.00
2022-07-27T16:30:13.115Z,99035.44
2022-07-27T16:32:23.114Z,99032.03
2022-07-27T16:34:31.674Z,99031.81
2022-07-27T16:36:38.622Z,99028.28
2022-07-27T16:38:50.192Z,99041.06
2022-07-27T16:40:53.233Z,99044.09
2022-07-27T16:42:56.756Z,99045.50
2022-07-27T16:44:59.420Z,99040.94
2022-07-27T16:47:02.830Z,99049.50
2022-07-27T16:49:07.522Z,99060.19
2022-07-27T16:51:12.101Z,99051.94
2022-07-27T16:53:14.605Z,99060.16
2022-07-27T16:55:17.299Z,99051.63
2022-07-27T16:57:20.280Z,99054.63
2022-07-27T16:59:23.005Z,99048.50
2022-07-27T17:01:26.681Z,99057.91
2022-07-27T17:03:29.864Z,99059.56
2022-07-27T17:05:33.172Z,99058.88
2022-07-27T17:07:36.116Z,99063.09
2022-07-27T17:09:38.640Z,99060.22
2022-07-27T17:11:41.198Z,99063.38
2022-07-27T17:13:48.910Z,99065.72
2022-07-27T17:15:53.801Z,99058.09
2022-07-27T17:17:56.462Z,99053.50
2022-07-27T17:19:58.985Z,99058.94
2022-07-27T17:22:01.813Z,99064.34
2022-07-27T17:24:04.687Z,99062.13
2022-07-27T17:26:08.031Z,99063.94
2022-07-27T17:28:10.762Z,99068.53
2022-07-27T17:30:13.389Z,99073.91
2022-07-27T17:32:15.979Z,99062.41
2022-07-27T17:34:18.556Z,99065.81
2022-07-27T17:36:22.032Z,99078.78
2022-07-27T17:38:24.620Z,99066.88
2022-07-27T17:40:27.259Z,99082.22
2022-07-27T17:42:29.933Z,99076.72
2022-07-27T17:44:34.158Z,99080.47
2022-07-27T17:46:39.041Z,99084.69
2022-07-27T17:48:41.958Z,99082.38
2022-07-27T17:50:45.341Z,99089.19
2022-07-27T17:52:47.984Z,99085.72
2022-07-27T17:54:51.195Z,99083.81
2022-07-27T17:56:53.977Z,99093.88
2022-07-27T17:59:09.081Z,99090.78
2022-07-27T18:01:46.380Z,99095.28
2022-07-27T18:03:42.075Z,99098.94
2022-07-27T18:05:45.490Z,99096.53
2022-07-27T18:07:51.658Z,99096.34
2022-07-27T18:09:54.553Z,99090.88
2022-07-27T18:11:57.047Z,99092.28
2022-07-27T18:13:59.669Z,99093.91
2022-07-27T18:16:02.358Z,99091.13
2022-07-27T18:18:05.153Z,99084.41
2022-07-27T18:20:11.839Z,99092.09
2022-07-27T18:22:14.626Z,99089.84
2022-07-27T18:24:19.633Z,99092.25
2022-07-27T18:26:22.335Z,99096.31
2022-07-27T18:28:24.938Z,99092.78
2022-07-27T18:30:27.902Z,99093.31
2022-07-27T18:32:30.412Z,99097.81
2022-07-27T18:34:33.019Z,99106.63
2022-07-27T18:36:38.958Z,99090.69
2022-07-27T18:38:41.567Z,99098.75
2022-07-27T18:40:46.233Z,99096.88
2022-07-27T18:42:48.908Z,99097.34
2022-07-27T18:44:51.534Z,99104.16
2022-07-27T18:46:54.076Z,99106.25
2022-07-27T18:48:56.964Z,99110.66
2022-07-27T18:50:59.577Z,99109.88
2022-07-27T18:53:02.128Z,99109.91
2022-07-27T18:55:05.479Z,99106.75
2022-07-27T18:57:08.002Z,99112.75
2022-07-27T18:59:10.845Z,99109.63
2022-07-27T19:01:13.697Z,99103.63
2022-07-27T19:03:16.326Z,99108.06
2022-07-27T19:05:32.593Z,99101.28
2022-07-27T19:07:43.777Z,99103.75
2022-07-27T19:09:49.081Z,99105.75
2022-07-27T19:11:51.629Z,99099.00
2022-07-27T19:13:56.885Z,99106.63
2022-07-27T19:16:01.001Z,99109.47
2022-07-27T19:18:04.991Z,99105.09
2022-07-27T19:20:09.596Z,99108.28
2022-07-27T19:22:13.009Z,99104.75
2022-07-27T19:24:15.760Z,99117.53
2022-07-27T19:26:18.666Z,99115.97
2022-07-27T19:28:21.718Z,99123.13
2022-07-27T19:30:24.266Z,99120.72
2022-07-27T19:32:27.421Z,99129.94
2022-07-27T19:34:29.944Z,99127.53
2022-07-27T19:36:32.497Z,99127.59
2022-07-27T19:38:35.642Z,99118.84
2022-07-27T19:40:44.541Z,99118.03
2022-07-27T19:42:47.883Z,99128.03
2022-07-27T19:44:50.646Z,99131.66
2022-07-27T19:46:54.627Z,99129.69
2022-07-27T19:48:57.232Z,99130.06
2022-07-27T19:51:04.854Z,99128.50
2022-07-27T19:53:09.399Z,99130.09
2022-07-27T19:55:12.121Z,99125.72
2022-07-27T19:57:15.085Z,99126.13
2022-07-27T19:59:17.623Z,99118.94
2022-07-27T20:01:20.299Z,99115.75
2022-07-27T20:03:23.477Z,99120.16
2022-07-27T20:05:25.954Z,99120.56
2022-07-27T20:07:28.469Z,99119.78
2022-07-27T20:09:31.041Z,99126.19
2022-07-27T20:11:33.969Z,99130.53
2022-07-27T20:13:36.557Z,99130.97
2022-07-27T20:15:39.442Z,99132.56
2022-07-27T20:17:41.928Z,99137.34
2022-07-27T20:19:44.748Z,99137.75
2022-07-27T20:21:47.314Z,99135.41
2022-07-27T20:23:50.389Z,99137.38
2022-07-27T20:25:53.083Z,99140.16
2022-07-27T20:27:55.633Z,99141.78
2022-07-27T20:29:58.099Z,99150.16
2022-07-27T20:32:00.647Z,99156.53
2022-07-27T20:34:03.192Z,99144.13
2022-07-27T20:36:06.216Z,99136.97
2022-07-27T20:38:08.828Z,99142.16
2022-07-27T20:40:12.173Z,99140.94
2022-07-27T20:42:14.745Z,99145.34
2022-07-27T20:44:17.246Z,99138.16
2022-07-27T20:46:19.828Z,99141.34
2022-07-27T20:48:22.441Z,99140.13
2022-07-27T20:50:25.260Z,99140.13
2022-07-27T20:52:27.861Z,99141.72
2022-07-27T20:54:30.722Z,99136.94
2022-07-27T20:56:33.400Z,99139.75
2022-07-27T20:58:35.950Z,99148.09
2022-07-27T21:00:38.662Z,99147.69
2022-07-27T21:02:41.569Z,99142.50
2022-07-27T21:04:44.427Z,99139.72
2022-07-27T21:06:46.893Z,99143.69
2022-07-27T21:08:49.477Z,99135.34
2022-07-27T21:10:52.101Z,99137.31
2022-07-27T21:12:54.679Z,99135.72
2022-07-27T21:14:57.184Z,99142.09
2022-07-27T21:16:59.812Z,99145.25
2022-07-27T21:19:02.461Z,99149.63
2022-07-27T21:21:04.983Z,99154.00
2022-07-27T21:23:26.265Z,99154.78
2022-07-27T21:25:28.989Z,99144.81
2022-07-27T21:27:31.939Z,99154.75
2022-07-27T21:29:34.696Z,99151.16
2022-07-27T21:31:39.049Z,99153.56
2022-07-27T21:33:41.652Z,99152.34
2022-07-27T21:35:44.327Z,99158.69
2022-07-27T21:37:46.888Z,99157.84
2022-07-27T21:39:49.410Z,99159.06
2022-07-27T21:41:51.964Z,99157.03
2022-07-27T21:43:54.566Z,99152.63
2022-07-27T21:45:57.076Z,99153.03
2022-07-27T21:47:59.637Z,99150.63
2022-07-27T21:50:02.339Z,99149.41
2022-07-27T21:52:06.735Z,99146.19
2022-07-27T21:54:09.321Z,99147.78
2022-07-27T21:56:13.733Z,99143.38
2022-07-27T21:58:16.677Z,99145.34
2022-07-27T22:00:24.186Z,99144.50
2022-07-27T22:02:27.479Z,99152.06
2022-07-27T22:04:31.107Z,99152.44
2022-07-27T22:06:33.703Z,99150.44
2022-07-27T22:08:36.559Z,99159.56
2022-07-27T22:10:39.271Z,99150.00
2022-07-27T22:12:41.800Z,99155.94
2022-07-27T22:14:44.351Z,99158.31
2022-07-27T22:16:46.950Z,99146.38
2022-07-27T22:18:49.537Z,99145.97
2022-07-27T22:20:52.462Z,99143.91
2022-07-27T22:22:54.993Z,99147.84
2022-07-27T22:24:57.552Z,99148.63
2022-07-27T22:27:00.232Z,99153.78
2022-07-27T22:29:20.801Z,99153.38
2022-07-27T22:31:24.239Z,99155.69
2022-07-27T22:33:27.724Z,99155.66
2022-07-27T22:35:30.487Z,99149.25
2022-07-27T22:37:33.054Z,99161.59
2022-07-27T22:39:35.681Z,99152.81
2022-07-27T22:41:39.804Z,99161.16
2022-07-27T22:43:42.378Z,99157.97
2022-07-27T22:45:45.000Z,99148.78
2022-07-27T22:47:47.596Z,99162.69
2022-07-27T22:49:50.698Z,99166.66
2022-07-27T22:51:54.465Z,99167.81
2022-07-27T22:53:57.232Z,99170.19
2022-07-27T22:56:00.550Z,99165.41
2022-07-27T22:58:03.887Z,99160.19
2022-07-27T23:00:07.333Z,99165.34
2022-07-27T23:02:10.305Z,99170.50
2022-07-27T23:04:13.247Z,99174.47
2022-07-27T23:06:15.927Z,99174.03
2022-07-27T23:08:18.558Z,99178.41
2022-07-27T23:10:39.465Z,99175.19
2022-07-27T23:12:42.066Z,99175.97
2022-07-27T23:14:49.029Z,99178.31
2022-07-27T23:16:52.782Z,99179.09
2022-07-27T23:18:55.408Z,99178.69
2022-07-27T23:20:57.972Z,99183.81
2022-07-27T23:23:00.655Z,99185.38
2022-07-27T23:25:03.990Z,99186.97
2022-07-27T23:27:09.739Z,99188.53
2022-07-27T23:29:12.258Z,99190.94
2022-07-27T23:31:16.111Z,99190.53
2022-07-27T23:33:18.749Z,99197.66
2022-07-27T23:35:21.434Z,99187.28
2022-07-27T23:37:24.060Z,99198.44
2022-07-27T23:39:27.749Z,99193.25
2022-07-27T23:41:30.261Z,99191.66
2022-07-27T23:43:32.874Z,99194.00
2022-07-27T23:45:35.469Z,99184.47
2022-07-27T23:47:38.374Z,99192.00
2022-07-27T23:49:41.227Z,99201.09
2022-07-27T23:51:44.576Z,99192.72
2022-07-27T23:53:48.155Z,99196.28
2022-07-27T23:55:50.901Z,99187.88
2022-07-27T23:57:53.633Z,99186.66
2022-07-27T23:59:56.292Z,99189.81
